Time;durP1;ratioP1;P1;durP2;ratioP2;P2;SDS_P1;SDS_P2;PMS_P1;PMS_P2;Temp;Humidity;BMP_temperature;BMP_pressure;BME280_temperature;BME280_humidity;BME280_pressure;Samples;Min_cycle;Max_cycle;Signal;HPM_P1;HPM_P2
2021/07/29 00:00:41;;;;;;;5.22;3.67;;;;;;;16.86;80.35;100445.47;4987807;28;20054;-89
2021/07/29 00:03:07;;;;;;;8.13;4.35;;;;;;;16.83;80.75;100440.50;4996653;28;20046;-92
2021/07/29 00:05:35;;;;;;;7.32;4.20;;;;;;;16.84;80.66;100446.75;4993571;28;20110;-83
2021/07/29 00:08:00;;;;;;;5.13;4.07;;;;;;;16.82;80.98;100443.41;4986944;28;20049;-92
2021/07/29 00:10:27;;;;;;;7.25;3.75;;;;;;;16.81;80.86;100434.44;4973533;28;20398;-87
2021/07/29 00:12:53;;;;;;;7.13;4.18;;;;;;;16.83;80.56;100432.38;4988517;28;20046;-85
2021/07/29 00:15:19;;;;;;;14.32;4.13;;;;;;;16.81;80.57;100439.88;4984267;28;20049;-85
2021/07/29 00:20:20;;;;;;;7.68;3.80;;;;;;;16.72;80.93;100434.88;4980466;28;20058;-85
2021/07/29 00:22:54;;;;;;;5.53;3.75;;;;;;;16.72;80.53;100432.16;4966646;28;20047;-85
2021/07/29 00:25:20;;;;;;;8.75;4.25;;;;;;;16.76;80.32;100430.69;4971365;28;20055;-86
2021/07/29 00:27:47;;;;;;;6.00;3.50;;;;;;;16.71;79.37;100434.03;4977527;28;20046;-85
2021/07/29 00:30:17;;;;;;;7.25;4.10;;;;;;;16.76;79.08;100433.38;4962840;28;20494;-84
2021/07/29 00:32:44;;;;;;;8.55;3.55;;;;;;;16.74;78.93;100435.47;4981303;28;20046;-85
2021/07/29 00:35:17;;;;;;;7.50;3.38;;;;;;;16.76;78.54;100439.66;4982453;28;20354;-90
2021/07/29 00:37:46;;;;;;;7.47;3.65;;;;;;;16.75;78.30;100432.56;4981613;28;20228;-92
2021/07/29 00:40:12;;;;;;;4.90;2.72;;;;;;;16.73;77.46;100417.56;4981345;28;20725;-85
2021/07/29 00:42:38;;;;;;;4.47;2.70;;;;;;;16.74;77.45;100428.16;4981531;28;20081;-87
2021/07/29 00:45:04;;;;;;;4.75;2.75;;;;;;;16.75;77.29;100415.47;4981818;28;20104;-84
2021/07/29 00:47:31;;;;;;;4.88;2.85;;;;;;;16.76;76.81;100417.13;4977797;28;20133;-86
2021/07/29 00:49:57;;;;;;;6.03;2.78;;;;;;;16.73;76.11;100412.97;4980440;28;20062;-85
2021/07/29 00:52:23;;;;;;;5.57;2.65;;;;;;;16.71;75.99;100406.91;4980459;28;20073;-85
2021/07/29 00:54:50;;;;;;;6.97;2.75;;;;;;;16.73;75.95;100401.31;4981814;28;20312;-86
2021/07/29 00:57:16;;;;;;;5.68;2.63;;;;;;;16.74;76.26;100394.84;4980438;28;20046;-85
2021/07/29 00:59:41;;;;;;;8.60;3.05;;;;;;;16.74;76.40;100403.78;4980489;28;20412;-90
2021/07/29 01:02:07;;;;;;;6.53;3.10;;;;;;;16.76;76.28;100396.31;4959747;28;20125;-87
2021/07/29 01:04:33;;;;;;;4.78;3.03;;;;;;;16.76;76.36;100390.91;4975087;28;20038;-84
2021/07/29 01:06:59;;;;;;;8.43;3.13;;;;;;;16.71;76.52;100404.22;4972315;28;20376;-85
2021/07/29 01:09:28;;;;;;;6.43;3.60;;;;;;;16.72;76.68;100399.66;4975476;28;20145;-85
2021/07/29 01:11:54;;;;;;;6.78;3.17;;;;;;;16.69;76.89;100399.03;4979124;28;20050;-88
2021/07/29 01:14:22;;;;;;;6.07;3.30;;;;;;;16.67;77.14;100398.41;4964459;28;20081;-89
2021/07/29 01:16:47;;;;;;;6.00;2.80;;;;;;;16.58;77.45;100393.44;4973124;28;20140;-85
2021/07/29 01:19:13;;;;;;;6.05;3.30;;;;;;;16.61;77.49;100395.72;4982717;28;20026;-85
2021/07/29 01:21:40;;;;;;;7.05;2.88;;;;;;;16.62;77.46;100397.38;4970863;28;21325;-84
2021/07/29 01:24:05;;;;;;;4.72;2.72;;;;;;;16.61;77.01;100393.84;4979449;28;20069;-85
2021/07/29 01:26:31;;;;;;;7.30;2.85;;;;;;;16.63;76.77;100394.47;4983052;28;20424;-92
2021/07/29 01:29:00;;;;;;;6.45;2.85;;;;;;;16.61;77.46;100385.72;4973183;28;20224;-85
2021/07/29 01:31:26;;;;;;;6.80;3.15;;;;;;;16.62;77.43;100394.66;4983071;28;20046;-88
2021/07/29 01:33:53;;;;;;;5.15;2.60;;;;;;;16.57;77.46;100402.59;4982789;28;20054;-85
2021/07/29 01:36:19;;;;;;;5.60;2.47;;;;;;;16.55;76.64;100389.28;4976637;28;20039;-87
2021/07/29 01:38:46;;;;;;;6.10;2.28;;;;;;;16.52;76.63;100400.53;4983109;28;20065;-85
2021/07/29 01:41:12;;;;;;;5.43;2.60;;;;;;;16.52;76.58;100394.31;4982536;28;20090;-84
2021/07/29 01:43:38;;;;;;;5.47;2.47;;;;;;;16.54;76.54;100392.19;4984356;28;20113;-85
2021/07/29 01:46:04;;;;;;;4.57;2.63;;;;;;;16.55;77.05;100399.28;4982907;28;20058;-86
2021/07/29 01:48:33;;;;;;;6.18;2.72;;;;;;;16.54;76.72;100401.13;4981574;28;20133;-86
2021/07/29 01:50:58;;;;;;;7.53;2.40;;;;;;;16.52;76.66;100394.31;4980344;28;20047;-84
2021/07/29 01:53:24;;;;;;;6.13;2.35;;;;;;;16.55;76.68;100400.13;4981786;28;20042;-85
2021/07/29 01:55:50;;;;;;;8.23;2.60;;;;;;;16.50;76.72;100390.97;4984334;28;20050;-84
2021/07/29 01:58:17;;;;;;;8.05;2.50;;;;;;;16.47;76.60;100401.16;4982317;28;20533;-85
2021/07/29 02:00:51;;;;;;;7.40;2.42;;;;;;;16.50;76.86;100388.25;4983019;28;20054;-85
2021/07/29 02:03:17;;;;;;;5.88;2.45;;;;;;;16.51;76.46;100400.75;4966949;28;20132;-84
2021/07/29 02:05:43;;;;;;;3.60;2.03;;;;;;;16.52;76.39;100399.72;4982553;28;20130;-85
2021/07/29 02:08:09;;;;;;;8.02;2.45;;;;;;;16.51;76.58;100404.28;4982578;28;20153;-88
2021/07/29 02:10:35;;;;;;;8.18;2.53;;;;;;;16.46;76.45;100401.41;4986240;28;20062;-84
2021/07/29 02:13:02;;;;;;;6.47;2.28;;;;;;;16.44;76.66;100400.78;4985703;28;20109;-94
2021/07/29 02:15:28;;;;;;;5.97;2.20;;;;;;;16.45;76.23;100397.84;4980143;28;20078;-88
2021/07/29 02:17:56;;;;;;;5.90;2.00;;;;;;;16.38;76.47;100394.31;4987057;28;20077;-84
2021/07/29 02:20:21;;;;;;;9.60;2.65;;;;;;;16.40;76.58;100394.94;4977313;28;20053;-85
2021/07/29 02:22:48;;;;;;;7.00;2.15;;;;;;;16.39;76.63;100395.97;4987205;28;21041;-89
2021/07/29 02:25:13;;;;;;;5.97;2.30;;;;;;;16.42;76.44;100398.25;4977582;28;20048;-85
2021/07/29 02:27:40;;;;;;;3.97;2.03;;;;;;;16.43;76.49;100399.94;4987528;28;20042;-84
2021/07/29 02:30:06;;;;;;;6.18;2.30;;;;;;;16.40;76.50;100403.06;4985821;28;20054;-85
2021/07/29 02:32:31;;;;;;;3.90;2.13;;;;;;;16.38;76.72;100407.03;4978578;28;20054;-87
2021/07/29 02:34:56;;;;;;;5.90;2.05;;;;;;;16.41;76.60;100417.44;4986388;28;20078;-85
2021/07/29 02:37:23;;;;;;;3.83;2.30;;;;;;;16.40;76.73;100408.50;4983930;28;20082;-88
2021/07/29 02:39:50;;;;;;;6.18;2.38;;;;;;;16.41;76.96;100404.72;4986557;28;20167;-84
2021/07/29 02:42:16;;;;;;;8.80;2.83;;;;;;;16.42;77.36;100406.38;4955831;28;20039;-84
2021/07/29 02:44:45;;;;;;;5.22;2.60;;;;;;;16.37;77.65;100406.22;4978426;28;20065;-85
2021/07/29 02:47:10;;;;;;;6.40;2.55;;;;;;;16.32;78.08;100411.41;4965259;28;20146;-91
2021/07/29 02:49:37;;;;;;;5.80;2.45;;;;;;;16.32;78.24;100419.53;4978231;28;20253;-86
2021/07/29 02:52:03;;;;;;;5.00;2.20;;;;;;;16.29;78.70;100416.44;4983950;28;20481;-84
2021/07/29 02:54:28;;;;;;;6.53;2.42;;;;;;;16.27;78.90;100418.50;4977995;28;20047;-92
2021/07/29 02:56:54;;;;;;;5.63;2.20;;;;;;;16.27;78.83;100418.50;4984988;28;20556;-93
2021/07/29 02:59:19;;;;;;;6.30;2.47;;;;;;;16.22;78.80;100411.84;4983093;28;20540;-86
2021/07/29 03:01:45;;;;;;;6.30;2.55;;;;;;;16.24;78.93;100411.63;4980311;28;20126;-88
2021/07/29 03:04:11;;;;;;;7.00;2.58;;;;;;;16.20;79.33;100407.69;4981406;28;20058;-84
2021/07/29 03:06:36;;;;;;;7.45;2.72;;;;;;;16.18;79.62;100410.59;4985754;28;20058;-85
2021/07/29 03:09:02;;;;;;;6.80;3.58;;;;;;;16.15;79.76;100408.31;4986435;28;20083;-93
2021/07/29 03:11:28;;;;;;;7.28;2.85;;;;;;;16.13;80.22;100412.28;4981259;28;20066;-85
2021/07/29 03:13:54;;;;;;;7.15;3.25;;;;;;;16.12;80.50;100408.75;4983855;28;20066;-89
2021/07/29 03:16:20;;;;;;;8.57;3.50;;;;;;;16.08;80.92;100412.88;4984490;28;20132;-85
2021/07/29 03:18:47;;;;;;;5.55;3.20;;;;;;;15.95;81.88;100418.31;4985721;28;20054;-88
2021/07/29 03:21:12;;;;;;;8.80;3.33;;;;;;;15.96;81.93;100425.41;4985540;28;20516;-84
2021/07/29 03:23:38;;;;;;;7.47;3.45;;;;;;;15.92;82.41;100411.47;4988631;28;20058;-94
2021/07/29 03:26:05;;;;;;;7.68;3.20;;;;;;;15.84;82.83;100414.38;4984636;28;20042;-85
2021/07/29 03:28:30;;;;;;;7.03;3.40;;;;;;;15.81;83.14;100419.38;4966640;28;20066;-85
2021/07/29 03:30:56;;;;;;;6.85;3.28;;;;;;;15.73;83.58;100423.94;4984371;28;20129;-85
2021/07/29 03:33:22;;;;;;;7.40;3.60;;;;;;;15.71;83.69;100430.59;4984097;28;20038;-86
2021/07/29 03:35:49;;;;;;;7.25;2.97;;;;;;;15.72;83.78;100433.09;4982511;28;20051;-92
2021/07/29 03:38:15;;;;;;;7.43;2.92;;;;;;;15.67;84.09;100434.72;4985730;28;20034;-85
2021/07/29 03:40:42;;;;;;;7.05;3.20;;;;;;;15.63;84.39;100433.47;4985127;28;20452;-88
2021/07/29 03:43:09;;;;;;;6.53;2.88;;;;;;;15.61;84.45;100424.72;4985685;28;20104;-89
2021/07/29 03:45:37;;;;;;;8.85;3.20;;;;;;;15.58;84.52;100434.91;4976657;28;20417;-85
2021/07/29 03:48:03;;;;;;;8.75;3.45;;;;;;;15.61;84.54;100435.53;4983830;28;20452;-88
2021/07/29 03:50:30;;;;;;;8.43;3.45;;;;;;;15.57;84.67;100441.38;4985519;28;20356;-84
2021/07/29 03:52:58;;;;;;;7.68;2.80;;;;;;;15.55;84.73;100421.81;4967136;28;20038;-84
2021/07/29 03:55:24;;;;;;;9.95;3.25;;;;;;;15.57;84.73;100435.97;4981942;28;20495;-88
2021/07/29 03:57:50;;;;;;;6.85;2.90;;;;;;;15.61;84.40;100440.94;4984097;28;20068;-84
2021/07/29 04:00:16;;;;;;;9.88;2.67;;;;;;;15.56;84.85;100439.72;4982277;28;20121;-85
2021/07/29 04:02:42;;;;;;;7.88;2.65;;;;;;;15.53;84.86;100434.69;4985430;28;20042;-83
2021/07/29 04:05:08;;;;;;;8.77;3.33;;;;;;;15.48;85.18;100430.97;4977359;28;20039;-85
2021/07/29 04:07:34;;;;;;;9.40;3.15;;;;;;;15.49;85.05;100430.75;4940559;28;20082;-85
2021/07/29 04:10:00;;;;;;;8.13;3.53;;;;;;;15.49;85.33;100432.63;4978202;28;20047;-91
2021/07/29 04:12:25;;;;;;;5.32;2.92;;;;;;;15.47;85.32;100437.38;4983702;28;20054;-88
2021/07/29 04:14:51;;;;;;;7.55;3.33;;;;;;;15.42;85.30;100432.63;4978372;28;20041;-84
2021/07/29 04:17:17;;;;;;;7.05;3.33;;;;;;;15.43;85.39;100438.84;4983626;28;20054;-85
2021/07/29 04:19:44;;;;;;;9.10;2.80;;;;;;;15.39;85.54;100449.22;4980223;28;20061;-88
2021/07/29 04:22:09;;;;;;;6.88;3.20;;;;;;;15.39;85.63;100449.22;4953661;28;20043;-93
2021/07/29 04:24:35;;;;;;;6.72;3.58;;;;;;;15.39;85.62;100451.91;4975292;28;20054;-84
2021/07/29 04:27:01;;;;;;;7.45;2.70;;;;;;;15.38;85.85;100447.56;4985582;28;20049;-86
2021/07/29 04:29:31;;;;;;;7.88;2.70;;;;;;;15.40;86.05;100450.06;4982529;28;20532;-85
2021/07/29 04:31:56;;;;;;;6.85;2.90;;;;;;;15.39;85.94;100453.78;4980307;28;20448;-88
2021/07/29 04:34:22;;;;;;;7.40;3.00;;;;;;;15.41;86.59;100451.72;4982910;28;20038;-90
2021/07/29 04:36:47;;;;;;;7.47;3.08;;;;;;;15.46;86.25;100458.19;4982875;28;20504;-84
2021/07/29 04:39:14;;;;;;;8.95;3.33;;;;;;;15.54;86.20;100459.88;4959240;28;20181;-91
2021/07/29 04:41:41;;;;;;;10.90;3.30;;;;;;;15.45;87.04;100440.31;4982291;28;20042;-85
2021/07/29 04:44:08;;;;;;;7.47;3.47;;;;;;;15.52;86.99;100462.78;4982479;28;20050;-86
2021/07/29 04:46:35;;;;;;;8.13;3.55;;;;;;;15.51;86.79;100461.13;4981750;28;20050;-91
2021/07/29 04:49:02;;;;;;;8.40;3.15;;;;;;;15.54;86.82;100452.59;4982381;28;20068;-86
2021/07/29 04:51:28;;;;;;;9.45;3.30;;;;;;;15.53;87.02;100456.31;4982916;28;20058;-87
2021/07/29 04:53:53;;;;;;;10.52;2.70;;;;;;;15.48;87.32;100458.81;4983101;28;20050;-85
2021/07/29 04:56:19;;;;;;;8.23;3.15;;;;;;;15.53;86.59;100467.13;4979346;28;20091;-86
2021/07/29 04:58:44;;;;;;;6.95;2.97;;;;;;;15.57;86.11;100454.88;4982740;28;20042;-85
2021/07/29 05:01:10;;;;;;;10.02;3.25;;;;;;;15.57;85.90;100468.41;4982010;28;20655;-84
2021/07/29 05:03:36;;;;;;;9.57;3.08;;;;;;;15.56;86.07;100463.19;4982441;28;20489;-86
2021/07/29 05:06:02;;;;;;;9.63;3.22;;;;;;;15.61;85.93;100473.41;4984295;28;20057;-86
2021/07/29 05:08:27;;;;;;;8.48;3.35;;;;;;;15.63;85.92;100465.94;4981885;28;20539;-85
2021/07/29 05:10:53;;;;;;;6.00;2.78;;;;;;;15.58;86.18;100469.25;4965542;28;20168;-91
2021/07/29 05:13:18;;;;;;;6.47;2.80;;;;;;;15.58;86.06;100471.94;4980985;28;20073;-84
2021/07/29 05:15:43;;;;;;;8.18;2.92;;;;;;;15.60;86.15;100467.16;4983026;28;20093;-86
2021/07/29 05:18:09;;;;;;;8.77;3.05;;;;;;;15.60;85.78;100464.47;4983818;28;20076;-85
2021/07/29 05:20:34;;;;;;;10.05;3.33;;;;;;;15.61;86.32;100474.25;4982342;28;20170;-88
2021/07/29 05:23:00;;;;;;;9.82;3.60;;;;;;;15.61;86.01;100473.41;4980934;28;20049;-84
2021/07/29 05:25:25;;;;;;;8.07;3.13;;;;;;;15.68;85.70;100475.13;4959614;28;20049;-87
2021/07/29 05:27:52;;;;;;;7.47;2.78;;;;;;;15.68;85.25;100477.84;4983914;28;20056;-85
2021/07/29 05:30:18;;;;;;;8.55;3.30;;;;;;;15.68;84.94;100468.84;4985488;28;20064;-84
2021/07/29 05:32:44;;;;;;;5.55;2.97;;;;;;;15.66;85.27;100476.34;4983364;28;20516;-84
2021/07/29 05:35:09;;;;;;;8.82;3.10;;;;;;;15.65;85.13;100458.41;4980561;28;20066;-85
2021/07/29 05:37:35;;;;;;;7.28;2.92;;;;;;;15.72;84.62;100472.84;4977222;28;20409;-85
2021/07/29 05:40:00;;;;;;;10.60;3.50;;;;;;;15.71;84.66;100468.47;4979882;28;20064;-85
2021/07/29 05:42:25;;;;;;;8.10;3.20;;;;;;;15.66;85.19;100473.63;4975073;28;20062;-84
2021/07/29 05:44:51;;;;;;;6.43;2.75;;;;;;;15.66;84.98;100474.47;4986942;28;20054;-85
2021/07/29 05:47:16;;;;;;;8.07;3.35;;;;;;;15.74;84.78;100470.78;4980307;28;20149;-87
2021/07/29 05:49:42;;;;;;;8.55;3.08;;;;;;;15.79;84.51;100473.66;4968786;28;20046;-92
2021/07/29 05:52:07;;;;;;;7.45;3.00;;;;;;;15.82;84.70;100475.97;4984465;28;20042;-85
2021/07/29 05:54:32;;;;;;;7.88;3.33;;;;;;;15.91;84.48;100479.28;4986212;28;20382;-87
2021/07/29 05:56:58;;;;;;;8.65;3.13;;;;;;;15.87;83.79;100478.06;4986761;28;20050;-85
2021/07/29 05:59:23;;;;;;;9.80;3.60;;;;;;;15.85;83.77;100480.94;4986438;28;20632;-85
2021/07/29 06:01:49;;;;;;;8.02;3.55;;;;;;;15.87;83.89;100478.88;4985132;28;20046;-87
2021/07/29 06:04:14;;;;;;;10.73;3.30;;;;;;;15.90;84.23;100475.75;4986859;28;20463;-85
2021/07/29 06:06:39;;;;;;;11.75;3.78;;;;;;;15.82;83.99;100470.53;4986087;28;20116;-85
2021/07/29 06:09:05;;;;;;;11.68;4.10;;;;;;;15.92;84.23;100481.81;4969393;28;20046;-86
2021/07/29 06:11:33;;;;;;;8.73;3.75;;;;;;;15.96;83.77;100477.63;4985915;28;20065;-86
2021/07/29 06:13:59;;;;;;;7.87;2.90;;;;;;;15.93;83.83;100483.47;4969289;28;20436;-86
2021/07/29 06:16:25;;;;;;;10.77;3.30;;;;;;;15.92;83.51;100487.22;4985694;28;20121;-85
2021/07/29 06:19:32;;;;;;;6.80;3.85;;;;;;;15.89;83.51;100481.41;4986229;28;20130;-86
2021/07/29 06:21:38;;;;;;;7.90;2.95;;;;;;;15.96;83.06;100483.06;4981437;28;20101;-89
2021/07/29 06:24:04;;;;;;;12.20;3.97;;;;;;;15.97;83.48;100478.50;4984420;28;20761;-86
2021/07/29 06:26:29;;;;;;;12.68;3.33;;;;;;;16.01;83.32;100490.56;4984062;28;20141;-87
2021/07/29 06:28:55;;;;;;;9.40;3.95;;;;;;;16.07;82.91;100487.03;4984868;28;20049;-85
2021/07/29 06:31:20;;;;;;;10.93;3.47;;;;;;;16.15;82.58;100476.00;4984901;28;20066;-85
2021/07/29 06:33:46;;;;;;;10.70;4.00;;;;;;;16.16;82.72;100487.66;4983498;28;20133;-91
2021/07/29 06:36:11;;;;;;;10.68;3.88;;;;;;;16.12;82.80;100486.41;4984681;28;20046;-84
2021/07/29 06:38:38;;;;;;;11.50;3.55;;;;;;;16.16;82.87;100512.00;4985337;28;20054;-85
2021/07/29 06:41:07;;;;;;;8.27;3.65;;;;;;;16.14;82.11;100495.13;4984870;28;20133;-85
2021/07/29 06:43:33;;;;;;;;;;;;;;;16.18;82.13;100508.06;4982596;28;20522;-85
2021/07/29 06:46:03;;;;;;;9.05;3.30;;;;;;;16.15;81.91;100496.81;4984099;28;19972;-89
2021/07/29 06:48:28;;;;;;;13.45;3.63;;;;;;;16.16;81.50;100496.59;4982163;28;20057;-85
2021/07/29 06:50:54;;;;;;;9.07;3.65;;;;;;;16.24;81.63;100495.56;4975595;28;20050;-84
2021/07/29 06:53:19;;;;;;;10.82;3.17;;;;;;;16.27;81.35;100503.25;4972752;28;20059;-84
2021/07/29 06:55:45;;;;;;;7.90;2.92;;;;;;;16.27;80.80;100505.16;4981039;28;20049;-85
2021/07/29 06:58:10;;;;;;;11.07;3.20;;;;;;;16.38;81.54;100499.94;4974458;28;20469;-87
2021/07/29 07:00:36;;;;;;;8.05;3.33;;;;;;;16.49;79.53;100498.47;4964297;28;20054;-86
2021/07/29 07:03:01;;;;;;;10.30;3.20;;;;;;;16.62;80.19;100503.03;4983645;28;20042;-84
2021/07/29 07:05:26;;;;;;;7.10;2.83;;;;;;;16.64;78.98;100495.53;4945951;28;20043;-85
2021/07/29 07:07:52;;;;;;;10.55;3.20;;;;;;;16.64;78.92;100501.78;4961327;28;20043;-85
2021/07/29 07:10:17;;;;;;;10.00;2.70;;;;;;;16.66;78.63;100504.28;4985633;28;20130;-85
2021/07/29 07:12:43;;;;;;;10.43;2.97;;;;;;;16.62;78.38;100508.44;4986869;28;20313;-84
2021/07/29 07:15:08;;;;;;;9.75;3.15;;;;;;;16.60;78.63;100515.94;4987375;28;20203;-85
2021/07/29 07:17:34;;;;;;;9.85;2.70;;;;;;;16.66;78.95;100510.53;4985381;28;20049;-84
2021/07/29 07:20:01;;;;;;;9.45;2.78;;;;;;;16.76;78.14;100507.41;4982933;28;20489;-84
2021/07/29 07:22:26;;;;;;;10.20;3.17;;;;;;;16.89;78.32;100515.50;4965807;28;20047;-88
2021/07/29 07:24:52;;;;;;;9.75;2.88;;;;;;;16.94;77.80;100512.16;4961519;28;20493;-84
2021/07/29 07:27:17;;;;;;;11.45;2.90;;;;;;;17.02;78.06;100525.47;4968131;28;20059;-87
2021/07/29 07:29:43;;;;;;;9.13;2.92;;;;;;;17.04;77.49;100528.00;4976625;28;20062;-85
2021/07/29 07:32:08;;;;;;;11.60;3.42;;;;;;;17.00;77.74;100535.69;4967321;28;20426;-85
2021/07/29 07:34:34;;;;;;;12.80;2.88;;;;;;;17.04;77.33;100522.56;4982289;28;20070;-85
2021/07/29 07:36:59;;;;;;;7.95;2.67;;;;;;;17.10;76.72;100521.72;4972754;28;20055;-86
2021/07/29 07:39:25;;;;;;;8.55;2.88;;;;;;;17.11;76.46;100551.28;4978368;28;20752;-89
2021/07/29 07:41:51;;;;;;;8.13;2.50;;;;;;;17.08;74.57;100508.34;4980387;28;20504;-85
2021/07/29 07:44:17;;;;;;;10.68;2.70;;;;;;;17.03;75.31;100537.16;4976609;28;20090;-85
2021/07/29 07:46:42;;;;;;;8.52;2.65;;;;;;;17.00;75.37;100543.00;4977441;28;20047;-85
2021/07/29 07:49:08;;;;;;;7.97;2.40;;;;;;;17.01;74.73;100536.53;4982777;28;20045;-85
2021/07/29 07:51:33;;;;;;;9.32;2.53;;;;;;;17.09;73.17;100534.44;4983683;28;20061;-84
2021/07/29 07:53:58;;;;;;;9.38;2.65;;;;;;;17.09;73.72;100547.13;4984594;28;20042;-85
2021/07/29 07:56:24;;;;;;;11.15;2.15;;;;;;;17.17;73.29;100532.53;4984392;28;20565;-84
2021/07/29 07:58:50;;;;;;;8.93;2.70;;;;;;;17.27;73.52;100543.75;4979685;28;20491;-84
2021/07/29 08:01:15;;;;;;;8.38;2.50;;;;;;;17.33;73.21;100534.75;4981347;28;20046;-85
2021/07/29 08:03:41;;;;;;;9.30;2.97;;;;;;;17.33;72.29;100532.06;4987662;28;20543;-84
2021/07/29 08:06:06;;;;;;;7.68;2.35;;;;;;;17.34;71.51;100536.41;4971710;28;20129;-83
2021/07/29 08:08:31;;;;;;;11.75;2.50;;;;;;;17.33;72.03;100532.88;4979941;28;20196;-86
2021/07/29 08:10:57;;;;;;;8.52;2.38;;;;;;;17.35;71.87;100529.97;4981518;28;20053;-88
2021/07/29 08:13:23;;;;;;;12.90;2.60;;;;;;;17.29;71.06;100533.50;4981830;28;20046;-91
2021/07/29 08:15:48;;;;;;;11.77;2.92;;;;;;;17.25;71.70;100540.41;4979828;28;20141;-84
2021/07/29 08:18:15;;;;;;;7.57;2.53;;;;;;;17.22;71.61;100549.00;4978789;28;20046;-84
2021/07/29 08:20:41;;;;;;;8.25;2.97;;;;;;;17.26;71.75;100542.06;4982151;28;20050;-84
2021/07/29 08:23:08;;;;;;;7.30;3.40;;;;;;;17.26;71.60;100542.94;4977968;28;20051;-86
2021/07/29 08:25:33;;;;;;;8.63;2.50;;;;;;;17.35;72.19;100532.69;4969830;28;20049;-84
2021/07/29 08:27:59;;;;;;;8.18;2.25;;;;;;;17.41;70.16;100517.44;4981317;28;20038;-84
2021/07/29 08:30:24;;;;;;;8.13;2.50;;;;;;;17.58;69.67;100513.16;4964012;28;20457;-84
2021/07/29 08:32:49;;;;;;;7.05;2.60;;;;;;;17.62;68.60;100540.69;4978055;28;20583;-86
2021/07/29 08:35:15;;;;;;;8.52;2.78;;;;;;;17.72;68.53;100528.31;4977329;28;20055;-84
2021/07/29 08:37:46;;;;;;;7.18;2.80;;;;;;;17.71;69.31;100540.19;4975787;28;20129;-88
2021/07/29 08:40:18;;;;;;;8.75;2.50;;;;;;;17.78;69.56;100541.03;4983818;28;20057;-88
2021/07/29 08:42:45;;;;;;;4.90;2.20;;;;;;;17.88;68.08;100534.31;4968377;28;20046;-87
2021/07/29 08:45:10;;;;;;;5.65;2.20;;;;;;;17.77;67.50;100560.22;4978551;28;20062;-85
2021/07/29 08:47:36;;;;;;;7.47;2.47;;;;;;;17.77;67.29;100550.19;4989676;28;20049;-88
2021/07/29 08:50:05;;;;;;;9.60;2.55;;;;;;;17.86;66.10;100553.50;4987455;28;20050;-84
2021/07/29 08:52:31;;;;;;;9.93;2.30;;;;;;;17.92;66.15;100558.06;4978085;28;20448;-86
2021/07/29 08:54:57;;;;;;;10.57;2.63;;;;;;;17.86;66.74;100547.25;4961489;28;20072;-87
2021/07/29 08:57:27;;;;;;;8.45;2.22;;;;;;;17.85;67.12;100551.03;4977074;28;20482;-86
2021/07/29 08:59:52;;;;;;;9.80;2.50;;;;;;;17.83;66.58;100562.09;4989410;28;20068;-87
2021/07/29 09:02:24;;;;;;;8.70;2.72;;;;;;;17.95;65.93;100548.66;4986653;28;20133;-85
2021/07/29 09:05:06;;;;;;;9.18;2.60;;;;;;;18.11;66.72;100556.28;4968047;28;20055;-85
2021/07/29 09:07:35;;;;;;;7.18;2.20;;;;;;;18.32;65.04;100562.38;4964986;28;20086;-85
2021/07/29 09:10:03;;;;;;;9.32;2.20;;;;;;;18.31;64.19;100549.88;4970955;28;20047;-85
2021/07/29 09:12:29;;;;;;;7.07;2.53;;;;;;;18.29;64.57;100554.69;4967694;28;20051;-89
2021/07/29 09:14:55;;;;;;;7.43;2.20;;;;;;;18.27;64.26;100544.88;4967039;28;20045;-85
2021/07/29 09:17:21;;;;;;;9.80;2.58;;;;;;;18.32;63.65;100567.81;4965221;28;20058;-87
2021/07/29 09:19:51;;;;;;;7.53;2.45;;;;;;;18.37;63.31;100573.44;4958672;28;20054;-87
2021/07/29 09:22:19;;;;;;;7.07;2.95;;;;;;;18.41;63.08;100563.78;4974089;28;20038;-91
2021/07/29 09:25:10;;;;;;;7.22;2.47;;;;;;;18.44;62.34;100582.34;4960217;28;20468;-85
2021/07/29 09:27:38;;;;;;;9.90;3.03;;;;;;;18.31;61.94;100572.44;4980489;28;20514;-86
2021/07/29 09:30:26;;;;;;;7.07;2.28;;;;;;;18.33;62.96;100572.22;4986824;28;20133;-86
2021/07/29 09:33:06;;;;;;;7.55;2.90;;;;;;;18.28;63.30;100572.88;4953474;28;20066;-86
2021/07/29 09:35:33;;;;;;;10.30;2.63;;;;;;;18.23;64.21;100565.38;4979668;28;20138;-87
2021/07/29 09:38:01;;;;;;;9.68;2.63;;;;;;;18.32;63.68;100573.25;4969147;28;20050;-85
2021/07/29 09:40:27;;;;;;;5.30;2.33;;;;;;;18.50;62.74;100557.03;4977694;28;20121;-86
2021/07/29 09:43:15;;;;;;;9.77;2.60;;;;;;;18.70;61.71;100579.44;4973047;28;20177;-88
2021/07/29 09:45:45;;;;;;;4.23;2.07;;;;;;;18.75;60.47;100572.50;4985019;28;20085;-86
2021/07/29 09:48:11;;;;;;;8.85;2.45;;;;;;;18.89;58.29;100571.31;4981560;28;20294;-85
2021/07/29 09:50:38;;;;;;;9.20;2.28;;;;;;;18.94;58.78;100582.38;4976435;28;20054;-90
2021/07/29 09:53:05;;;;;;;6.72;2.35;;;;;;;18.90;59.97;100565.69;4949666;28;20130;-85
2021/07/29 09:55:31;;;;;;;9.60;2.72;;;;;;;19.02;59.37;100578.50;4983742;28;20390;-86
2021/07/29 09:57:58;;;;;;;9.60;2.60;;;;;;;18.92;60.11;100588.03;4975094;28;20043;-86
2021/07/29 10:00:23;;;;;;;5.68;2.17;;;;;;;18.84;61.30;100572.00;4978176;28;20097;-86
2021/07/29 10:02:50;;;;;;;7.13;2.38;;;;;;;19.00;59.53;100570.59;4967077;28;20047;-89
2021/07/29 10:05:19;;;;;;;8.43;2.42;;;;;;;18.94;60.03;100574.22;4966462;28;20039;-85
2021/07/29 10:07:48;;;;;;;5.00;2.47;;;;;;;19.03;60.42;100581.00;4966432;28;20137;-85
2021/07/29 10:10:21;;;;;;;9.57;2.72;;;;;;;19.16;60.78;100583.59;4974755;28;20046;-86
2021/07/29 10:12:48;;;;;;;6.15;1.90;;;;;;;19.04;60.23;100571.78;4940044;28;20058;-91
2021/07/29 10:15:39;;;;;;;8.48;2.42;;;;;;;19.02;60.06;100573.94;4963985;28;20054;-88
2021/07/29 10:18:06;;;;;;;9.90;2.75;;;;;;;19.05;60.75;100573.47;4969682;28;20055;-87
2021/07/29 10:20:33;;;;;;;6.28;2.30;;;;;;;19.12;60.93;100563.34;4975824;28;20184;-87
2021/07/29 10:23:13;;;;;;;8.48;2.67;;;;;;;19.19;59.38;100579.59;4978392;28;20050;-85
2021/07/29 10:25:54;;;;;;;11.20;2.53;;;;;;;19.06;57.79;100552.53;4983840;28;20054;-85
2021/07/29 10:28:23;;;;;;;6.63;2.20;;;;;;;19.12;58.19;100584.28;4967089;28;20047;-87
2021/07/29 10:30:54;;;;;;;9.88;2.72;;;;;;;19.18;58.11;100553.44;4972568;28;20157;-85
2021/07/29 10:33:20;;;;;;;8.30;2.55;;;;;;;19.25;59.50;100575.13;4999876;28;20068;-87
2021/07/29 10:35:46;;;;;;;12.30;2.63;;;;;;;19.37;59.07;100571.44;4984821;28;20137;-88
2021/07/29 10:38:14;;;;;;;7.82;2.85;;;;;;;19.38;58.25;100581.25;4978262;28;20055;-87
2021/07/29 10:40:42;;;;;;;8.18;3.03;;;;;;;19.47;58.74;100583.66;4968384;28;20049;-85
2021/07/29 10:43:29;;;;;;;12.38;3.20;;;;;;;19.60;60.97;100570.72;4982655;28;20500;-87
2021/07/29 10:45:56;;;;;;;5.75;2.17;;;;;;;19.75;58.87;100561.34;4963735;28;20050;-87
2021/07/29 10:49:12;;;;;;;9.23;2.80;;;;;;;19.68;59.38;100558.72;4982855;28;20073;-86
2021/07/29 10:51:58;;;;;;;9.73;2.83;;;;;;;19.87;58.04;100553.22;4982648;28;20133;-88
2021/07/29 10:54:24;;;;;;;7.97;2.38;;;;;;;19.82;57.23;100572.97;4984324;28;20050;-87
2021/07/29 10:56:49;;;;;;;7.85;2.58;;;;;;;19.78;56.15;100569.06;4983721;28;21097;-90
2021/07/29 10:59:18;;;;;;;8.35;2.45;;;;;;;19.85;55.65;100572.50;4953219;28;20046;-85
2021/07/29 11:01:46;;;;;;;7.05;2.25;;;;;;;19.69;55.42;100551.41;4964429;28;20101;-86
2021/07/29 11:04:11;;;;;;;6.45;2.80;;;;;;;19.71;56.74;100562.84;4964712;28;20055;-85
2021/07/29 11:06:42;;;;;;;7.38;2.53;;;;;;;19.87;55.65;100558.69;4963442;28;20085;-86
2021/07/29 11:09:21;;;;;;;10.95;2.90;;;;;;;19.77;55.30;100551.91;4967177;28;20061;-85
2021/07/29 11:11:48;;;;;;;7.82;2.35;;;;;;;19.68;56.22;100572.34;4961599;28;20170;-85
2021/07/29 11:14:20;;;;;;;9.82;2.88;;;;;;;19.67;55.52;100572.56;4982456;28;20050;-87
2021/07/29 11:16:49;;;;;;;9.15;2.45;;;;;;;19.72;56.59;100572.72;4967670;28;20148;-90
2021/07/29 11:19:16;;;;;;;7.20;2.28;;;;;;;19.82;56.30;100572.97;4977430;28;20054;-87
2021/07/29 11:21:41;;;;;;;8.98;2.70;;;;;;;19.70;56.14;100581.09;4984085;28;20050;-86
2021/07/29 11:24:27;;;;;;;6.55;2.95;;;;;;;19.71;56.24;100565.59;4981930;28;20049;-88
2021/07/29 11:26:52;;;;;;;7.05;2.30;;;;;;;19.61;56.20;100575.09;4963048;28;20057;-85